Time;durP1;ratioP1;P1;durP2;ratioP2;P2;SDS_P1;SDS_P2;PMS_P1;PMS_P2;Temp;Humidity;BMP_temperature;BMP_pressure;BME280_temperature;BME280_humidity;BME280_pressure;Samples;Min_cycle;Max_cycle;Signal;HPM_P1;HPM_P2
2022/08/30 00:03:07;;;;;;;5.00;1.48;;;24.10;99.90;;;;;;5051839;28;20439;-70
2022/08/30 00:05:34;;;;;;;2.80;1.23;;;24.10;99.90;;;;;;5051863;28;20048;-70
2022/08/30 00:08:00;;;;;;;3.92;1.38;;;24.10;99.90;;;;;;5051407;28;20043;-70
2022/08/30 00:10:28;;;;;;;;;;;24.20;99.90;;;;;;5051794;28;20181;-70
2022/08/30 00:12:55;;;;;;;2.55;1.30;;;24.10;99.90;;;;;;5051472;28;20007;-70
2022/08/30 00:15:21;;;;;;;2.50;1.30;;;24.10;99.90;;;;;;5051640;28;20041;-69
2022/08/30 00:17:48;;;;;;;4.57;1.42;;;24.10;99.90;;;;;;5051355;28;20454;-70
2022/08/30 00:20:21;;;;;;;2.85;1.30;;;24.00;99.90;;;;;;5051169;28;20033;-70
2022/08/30 00:22:47;;;;;;;5.40;1.40;;;24.00;99.90;;;;;;5050594;28;20130;-70
2022/08/30 00:25:14;;;;;;;2.97;1.25;;;23.90;99.90;;;;;;5051018;28;20017;-70
2022/08/30 00:27:41;;;;;;;3.70;1.50;;;23.90;99.90;;;;;;5050921;28;20057;-70
2022/08/30 00:30:07;;;;;;;;;;;23.90;99.90;;;;;;5051280;28;20045;-70
2022/08/30 00:32:34;;;;;;;4.57;1.30;;;23.80;99.90;;;;;;5051024;28;19911;-70
2022/08/30 00:35:00;;;;;;;4.50;1.40;;;23.80;99.90;;;;;;5051306;28;20025;-70
2022/08/30 00:37:26;;;;;;;3.22;1.33;;;23.90;99.90;;;;;;5050878;28;20500;-70
2022/08/30 00:39:52;;;;;;;3.08;1.50;;;23.80;99.90;;;;;;5050884;28;20029;-70
2022/08/30 00:42:19;;;;;;;2.90;1.40;;;23.80;99.90;;;;;;5051011;28;20021;-70
2022/08/30 00:44:47;;;;;;;3.60;1.30;;;23.80;99.90;;;;;;5050940;28;20104;-70
2022/08/30 00:47:14;;;;;;;2.92;1.30;;;23.90;99.90;;;;;;5050760;28;20017;-70
2022/08/30 00:49:45;;;;;;;3.58;1.45;;;23.90;99.90;;;;;;5050640;28;20112;-69
2022/08/30 00:52:11;;;;;;;3.10;1.52;;;23.90;99.90;;;;;;5050680;28;20350;-69
2022/08/30 00:54:39;;;;;;;3.25;1.35;;;23.90;99.90;;;;;;5050711;28;20035;-69
2022/08/30 00:57:06;;;;;;;4.05;1.40;;;23.90;99.90;;;;;;5050605;28;20032;-69
2022/08/30 00:59:33;;;;;;;5.05;1.50;;;23.90;99.90;;;;;;5050562;28;20032;-69
2022/08/30 01:02:01;;;;;;;2.35;1.25;;;23.90;99.90;;;;;;5050558;28;20564;-69
2022/08/30 01:04:28;;;;;;;4.57;1.63;;;24.00;99.90;;;;;;5050474;28;20032;-69
2022/08/30 01:06:55;;;;;;;2.50;1.40;;;24.00;99.90;;;;;;5050673;28;20025;-69
2022/08/30 01:09:22;;;;;;;3.53;1.42;;;24.00;99.90;;;;;;5050541;28;20334;-69
2022/08/30 01:11:48;;;;;;;2.80;1.38;;;24.00;99.90;;;;;;5050509;28;20079;-69
2022/08/30 01:14:16;;;;;;;6.35;1.60;;;24.00;99.90;;;;;;5050431;28;20029;-69
2022/08/30 01:16:43;;;;;;;4.13;1.70;;;24.10;99.90;;;;;;5050496;28;20017;-69
2022/08/30 01:19:37;;;;;;;4.80;1.45;;;24.00;99.90;;;;;;5050590;28;20104;-69
2022/08/30 01:22:29;;;;;;;4.35;1.30;;;24.00;99.90;;;;;;5048877;28;20033;-69
2022/08/30 01:24:58;;;;;;;6.28;1.50;;;24.00;99.90;;;;;;5049788;28;20037;-69
2022/08/30 01:27:27;;;;;;;5.65;1.52;;;24.00;99.90;;;;;;5050004;28;20393;-69
2022/08/30 01:29:54;;;;;;;5.10;1.40;;;23.90;99.90;;;;;;5048640;28;20108;-69
2022/08/30 01:32:24;;;;;;;3.83;1.30;;;23.90;99.90;;;;;;5048734;28;20025;-69
2022/08/30 01:34:51;;;;;;;4.25;1.33;;;23.90;99.90;;;;;;5052309;28;20035;-69
2022/08/30 01:37:30;;;;;;;2.55;1.40;;;23.80;99.90;;;;;;5054130;28;20087;-69
2022/08/30 01:39:58;;;;;;;1.85;1.10;;;23.80;99.90;;;;;;5054124;28;20032;-70
2022/08/30 01:42:25;;;;;;;3.65;1.60;;;23.80;99.90;;;;;;5054151;28;20021;-69
2022/08/30 01:44:51;;;;;;;2.97;1.50;;;23.80;99.90;;;;;;5054317;28;20033;-70
2022/08/30 01:47:18;;;;;;;4.93;1.10;;;23.80;99.90;;;;;;5052590;28;20024;-69
2022/08/30 01:49:47;;;;;;;3.00;1.20;;;23.90;99.90;;;;;;5053874;28;20037;-69
2022/08/30 01:52:14;;;;;;;2.05;1.23;;;24.00;99.90;;;;;;5053826;28;20052;-69
2022/08/30 01:54:43;;;;;;;4.40;1.52;;;24.00;99.90;;;;;;5053676;28;20083;-70
2022/08/30 01:57:11;;;;;;;3.58;1.20;;;24.10;99.90;;;;;;5053554;28;20021;-69
2022/08/30 01:59:41;;;;;;;2.63;1.23;;;24.00;99.90;;;;;;5053649;28;20032;-70
2022/08/30 02:02:08;;;;;;;4.18;1.40;;;24.10;99.90;;;;;;5053968;28;20047;-69
2022/08/30 02:04:35;;;;;;;4.53;1.30;;;24.10;99.90;;;;;;5053657;28;20071;-69
2022/08/30 02:07:03;;;;;;;4.95;1.42;;;24.10;99.90;;;;;;5053419;28;20080;-69
2022/08/30 02:09:29;;;;;;;3.28;1.17;;;24.10;99.90;;;;;;5053761;28;20040;-69
2022/08/30 02:11:55;;;;;;;4.22;1.38;;;24.10;99.90;;;;;;5053539;28;20028;-70
2022/08/30 02:14:21;;;;;;;2.47;1.30;;;24.10;99.90;;;;;;5053445;28;20029;-69
2022/08/30 02:16:47;;;;;;;3.63;1.23;;;24.10;99.90;;;;;;5053708;28;20027;-69
2022/08/30 02:19:13;;;;;;;2.45;1.30;;;24.10;99.90;;;;;;5053621;28;20033;-69
2022/08/30 02:21:40;;;;;;;2.83;1.42;;;24.10;99.90;;;;;;5053712;28;20480;-69
2022/08/30 02:24:06;;;;;;;3.90;1.10;;;24.10;99.90;;;;;;5053795;28;20037;-69
2022/08/30 02:26:32;;;;;;;2.13;1.15;;;24.10;99.90;;;;;;5053021;28;20043;-69
2022/08/30 02:28:58;;;;;;;2.70;1.20;;;24.20;99.90;;;;;;5053609;28;20065;-69
2022/08/30 02:31:25;;;;;;;;;;;24.10;99.90;;;;;;5053557;28;20377;-69
2022/08/30 02:33:51;;;;;;;;;;;24.20;99.90;;;;;;5053307;28;19909;-69
2022/08/30 02:36:19;;;;;;;3.67;1.42;;;24.20;99.90;;;;;;5051463;28;19905;-69
2022/08/30 02:38:46;;;;;;;3.58;1.50;;;24.10;99.90;;;;;;5052677;28;20024;-70
2022/08/30 02:41:13;;;;;;;3.08;1.30;;;24.00;99.90;;;;;;5052445;28;20028;-69
2022/08/30 02:43:39;;;;;;;3.22;1.38;;;24.00;99.90;;;;;;5052964;28;20036;-69
2022/08/30 02:46:05;;;;;;;2.58;1.45;;;24.00;99.90;;;;;;5050185;28;20017;-69
2022/08/30 02:48:31;;;;;;;;;;;24.00;99.90;;;;;;5053500;28;20029;-69
2022/08/30 02:51:07;;;;;;;3.33;1.33;;;23.90;99.90;;;;;;5052708;28;19913;-69
2022/08/30 02:53:34;;;;;;;3.90;1.40;;;23.90;99.90;;;;;;5052626;28;20021;-69
2022/08/30 02:56:00;;;;;;;3.35;1.30;;;23.90;99.90;;;;;;5052611;28;20036;-69
2022/08/30 02:58:26;;;;;;;3.13;1.40;;;24.00;99.90;;;;;;5051391;28;20033;-69
2022/08/30 03:00:52;;;;;;;4.78;1.35;;;24.00;99.90;;;;;;5052581;28;20484;-68
2022/08/30 03:03:18;;;;;;;3.45;1.23;;;24.00;99.90;;;;;;5052094;28;20338;-69
2022/08/30 03:05:45;;;;;;;2.25;1.27;;;24.00;99.90;;;;;;5052590;28;20035;-69
2022/08/30 03:08:11;;;;;;;3.05;1.33;;;24.00;99.90;;;;;;5052167;28;20037;-69
2022/08/30 03:10:37;;;;;;;3.05;1.20;;;24.00;99.90;;;;;;5052064;28;20473;-69
2022/08/30 03:13:06;;;;;;;5.85;1.40;;;24.00;99.90;;;;;;5052419;28;20052;-70
2022/08/30 03:15:34;;;;;;;2.83;1.40;;;23.90;99.90;;;;;;5051973;28;20055;-69
2022/08/30 03:18:00;;;;;;;4.00;1.27;;;23.90;99.90;;;;;;5052315;28;20021;-69
2022/08/30 03:20:27;;;;;;;2.38;1.30;;;23.90;99.90;;;;;;5053132;28;20104;-69
2022/08/30 03:22:53;;;;;;;3.17;1.30;;;23.90;99.90;;;;;;5053496;28;20021;-69
2022/08/30 03:25:20;;;;;;;4.05;1.30;;;23.80;99.90;;;;;;5053351;28;20040;-70
2022/08/30 03:27:46;;;;;;;2.30;1.38;;;23.90;99.90;;;;;;5053073;28;20071;-69
2022/08/30 03:30:13;;;;;;;2.75;1.30;;;23.90;99.90;;;;;;5052960;28;20068;-69
2022/08/30 03:32:39;;;;;;;;;;;23.90;99.90;;;;;;5053786;28;20466;-70
2022/08/30 03:35:06;;;;;;;4.13;1.20;;;23.90;99.90;;;;;;5052805;28;19912;-69
2022/08/30 03:37:33;;;;;;;3.30;1.40;;;23.90;99.90;;;;;;5053157;28;20055;-69
2022/08/30 03:39:59;;;;;;;3.67;1.33;;;23.90;99.90;;;;;;5052727;28;20036;-69
2022/08/30 03:42:25;;;;;;;2.97;1.20;;;23.90;99.90;;;;;;5053307;28;20218;-70
2022/08/30 03:44:51;;;;;;;3.10;1.30;;;23.90;99.90;;;;;;5053229;28;20032;-70
2022/08/30 03:47:17;;;;;;;2.83;1.20;;;23.90;99.90;;;;;;5053160;28;20036;-70
2022/08/30 03:49:43;;;;;;;3.60;1.23;;;23.90;99.90;;;;;;5052444;28;20037;-69
2022/08/30 03:52:10;;;;;;;2.72;1.20;;;23.90;99.90;;;;;;5052658;28;20088;-69
2022/08/30 03:54:35;;;;;;;;;;;23.90;99.90;;;;;;5052986;28;20017;-69
2022/08/30 03:57:01;;;;;;;3.45;1.35;;;23.90;99.90;;;;;;5052290;28;20003;-70
2022/08/30 03:59:28;;;;;;;4.40;1.50;;;23.90;99.90;;;;;;5052491;28;20385;-70
2022/08/30 04:01:54;;;;;;;2.80;1.30;;;23.80;99.90;;;;;;5052512;28;20087;-69
2022/08/30 04:04:20;;;;;;;2.72;1.10;;;23.90;99.90;;;;;;5053033;28;20025;-69
2022/08/30 04:06:46;;;;;;;2.67;1.38;;;23.90;99.90;;;;;;5052116;28;20025;-70
2022/08/30 04:09:12;;;;;;;2.28;1.15;;;23.90;99.90;;;;;;5052207;28;20025;-69
2022/08/30 04:11:38;;;;;;;4.65;1.30;;;23.90;99.90;;;;;;5052382;28;20039;-70
2022/08/30 04:14:04;;;;;;;3.25;1.40;;;23.90;99.90;;;;;;5052400;28;20377;-69
2022/08/30 04:16:30;;;;;;;4.18;1.40;;;23.80;99.90;;;;;;5053054;28;20378;-69
2022/08/30 04:18:56;;;;;;;3.72;1.35;;;23.80;99.90;;;;;;5053279;28;20017;-69
2022/08/30 04:21:22;;;;;;;4.40;1.48;;;23.80;99.90;;;;;;5053218;28;20029;-69
2022/08/30 04:23:48;;;;;;;3.78;1.60;;;23.80;99.90;;;;;;5053476;28;20334;-70
2022/08/30 04:26:14;;;;;;;2.42;1.27;;;23.80;99.90;;;;;;5051665;28;20465;-69
2022/08/30 04:28:40;;;;;;;4.05;1.42;;;23.90;99.90;;;;;;5053579;28;20108;-69
2022/08/30 04:31:09;;;;;;;3.17;1.48;;;23.80;99.90;;;;;;5053121;28;20532;-69
2022/08/30 04:33:35;;;;;;;4.70;1.52;;;23.80;99.90;;;;;;5052969;28;20374;-69
2022/08/30 04:36:03;;;;;;;;;;;23.80;99.90;;;;;;5053421;28;20037;-70
2022/08/30 04:38:30;;;;;;;4.22;1.30;;;23.80;99.90;;;;;;5053073;28;19959;-70
2022/08/30 04:40:56;;;;;;;4.50;1.40;;;23.80;99.90;;;;;;5053223;28;20017;-70
2022/08/30 04:43:25;;;;;;;3.60;1.50;;;23.80;99.90;;;;;;5053160;28;20033;-69
2022/08/30 04:45:51;;;;;;;4.68;1.60;;;23.80;99.90;;;;;;5053138;28;20549;-69
2022/08/30 04:48:17;;;;;;;;;;;23.90;99.90;;;;;;5053440;28;20037;-69
2022/08/30 04:50:44;;;;;;;2.58;1.10;;;23.90;99.90;;;;;;5053539;28;19912;-69
2022/08/30 04:53:10;;;;;;;;;;;23.90;99.90;;;;;;5053469;28;20021;-69
2022/08/30 04:55:38;;;;;;;2.47;1.00;;;23.90;99.90;;;;;;5052935;28;20008;-69
2022/08/30 04:58:05;;;;;;;3.78;1.40;;;23.90;99.90;;;;;;5053466;28;20063;-69
2022/08/30 05:00:31;;;;;;;3.28;1.50;;;23.90;99.90;;;;;;5052999;28;20025;-69
2022/08/30 05:02:57;;;;;;;4.35;1.20;;;24.00;99.90;;;;;;5052777;28;20565;-69
2022/08/30 05:05:38;;;;;;;8.55;1.50;;;24.00;99.90;;;;;;5053688;28;20028;-69
2022/08/30 05:08:06;;;;;;;2.95;1.35;;;24.00;99.90;;;;;;5053357;28;20025;-69
2022/08/30 05:10:33;;;;;;;6.30;1.40;;;24.00;99.90;;;;;;5055911;28;20111;-69
2022/08/30 05:12:59;;;;;;;;;;;24.00;99.90;;;;;;5056832;28;20025;-69
2022/08/30 05:15:25;;;;;;;2.58;1.27;;;24.00;99.90;;;;;;5055876;28;19904;-69
2022/08/30 05:17:53;;;;;;;4.78;1.30;;;24.00;99.90;;;;;;5056184;28;20342;-70
2022/08/30 05:20:19;;;;;;;3.30;1.40;;;24.10;99.90;;;;;;5056362;28;20048;-69
2022/08/30 05:22:48;;;;;;;4.07;1.40;;;24.10;99.90;;;;;;5055955;28;20049;-69
2022/08/30 05:25:25;;;;;;;2.20;1.20;;;24.50;99.90;;;;;;5055665;28;20082;-69
2022/08/30 05:27:52;;;;;;;2.88;1.05;;;25.80;99.90;;;;;;5055638;28;20508;-69
2022/08/30 05:30:18;;;;;;;;;;;27.10;99.90;;;;;;5056435;28;20389;-70
2022/08/30 05:32:44;;;;;;;5.65;1.10;;;28.10;99.90;;;;;;5055498;28;20375;-70
2022/08/30 05:35:12;;;;;;;4.18;1.65;;;29.60;99.90;;;;;;5056008;28;20017;-70
2022/08/30 05:37:39;;;;;;;5.93;1.15;;;30.70;99.90;;;;;;5055436;28;20091;-70
2022/08/30 05:40:06;;;;;;;3.58;1.05;;;31.30;99.90;;;;;;5055584;28;20021;-70
2022/08/30 05:42:32;;;;;;;3.08;1.00;;;31.60;99.90;;;;;;5055903;28;20385;-70
2022/08/30 05:44:58;;;;;;;5.65;1.20;;;32.10;99.90;;;;;;5055508;28;20108;-71
2022/08/30 05:47:25;;;;;;;5.10;1.05;;;32.30;99.90;;;;;;5055426;28;20111;-70
2022/08/30 05:49:51;;;;;;;3.17;1.10;;;32.10;99.90;;;;;;5055486;28;20047;-70
2022/08/30 05:52:17;;;;;;;;;;;32.10;99.90;;;;;;5055117;28;20063;-70
2022/08/30 05:54:44;;;;;;;5.85;1.10;;;32.50;99.90;;;;;;5054547;28;19980;-70
2022/08/30 05:57:10;;;;;;;5.63;1.20;;;32.80;99.90;;;;;;5054788;28;20024;-70
2022/08/30 05:59:36;;;;;;;3.25;1.00;;;32.70;99.90;;;;;;5054485;28;20060;-71
2022/08/30 06:02:03;;;;;;;4.25;1.05;;;33.20;99.90;;;;;;5054260;28;20449;-70
2022/08/30 06:04:30;;;;;;;2.95;0.93;;;33.00;99.90;;;;;;5054083;28;20033;-70
2022/08/30 06:06:56;;;;;;;2.17;0.90;;;32.30;99.90;;;;;;5054253;28;20036;-70
2022/08/30 06:09:22;;;;;;;5.15;1.20;;;32.50;99.90;;;;;;5054417;28;20151;-71
2022/08/30 06:11:48;;;;;;;1.88;0.90;;;32.30;99.90;;;;;;5054556;28;20029;-70
2022/08/30 06:14:15;;;;;;;3.97;0.82;;;32.90;99.90;;;;;;5054243;28;20036;-70
2022/08/30 06:16:44;;;;;;;3.58;1.10;;;33.10;99.90;;;;;;5054481;28;20040;-70
2022/08/30 06:19:11;;;;;;;2.83;1.10;;;33.80;99.90;;;;;;5054975;28;20021;-71
2022/08/30 06:21:39;;;;;;;3.10;0.82;;;34.80;99.90;;;;;;5054830;28;20021;-71
2022/08/30 06:24:07;;;;;;;3.40;0.90;;;35.40;99.90;;;;;;5054667;28;20075;-71
2022/08/30 06:26:40;;;;;;;3.20;0.88;;;34.80;99.90;;;;;;5054552;28;20053;-70
2022/08/30 06:29:06;;;;;;;3.38;1.00;;;35.20;99.90;;;;;;5055325;28;20021;-71
2022/08/30 06:31:32;;;;;;;3.58;1.00;;;35.70;99.90;;;;;;5054576;28;20036;-70
2022/08/30 06:33:59;;;;;;;4.28;0.90;;;35.30;99.90;;;;;;5054478;28;20500;-71
2022/08/30 06:36:25;;;;;;;2.40;1.10;;;35.80;99.60;;;;;;5054666;28;20039;-70
2022/08/30 06:38:53;;;;;;;3.15;1.10;;;35.80;99.10;;;;;;5054518;28;20527;-71
2022/08/30 06:41:22;;;;;;;3.58;0.90;;;36.10;98.70;;;;;;5054237;28;20109;-71
2022/08/30 06:43:49;;;;;;;2.05;0.85;;;36.10;98.40;;;;;;5054434;28;20107;-71
2022/08/30 06:46:22;;;;;;;2.63;1.00;;;36.40;98.20;;;;;;5054613;28;20028;-70
2022/08/30 06:48:49;;;;;;;3.90;1.00;;;36.30;98.10;;;;;;5054593;28;20500;-70
2022/08/30 06:51:20;;;;;;;5.13;1.17;;;36.40;97.90;;;;;;5054315;28;20487;-70
2022/08/30 06:53:47;;;;;;;2.47;0.90;;;37.50;96.90;;;;;;5054884;28;20441;-70
2022/08/30 06:56:14;;;;;;;6.13;1.17;;;37.20;96.80;;;;;;5054704;28;20547;-71
2022/08/30 06:58:40;;;;;;;2.40;0.90;;;38.20;96.10;;;;;;5054303;28;20021;-71
2022/08/30 07:01:11;;;;;;;2.35;1.05;;;38.10;95.60;;;;;;5054571;28;20033;-71
2022/08/30 07:03:37;;;;;;;2.65;1.10;;;38.50;95.10;;;;;;5054671;28;20025;-71
2022/08/30 07:06:03;;;;;;;3.97;1.27;;;38.80;95.20;;;;;;5054469;28;20029;-71
2022/08/30 07:08:29;;;;;;;3.95;0.98;;;38.60;94.50;;;;;;5054110;28;20039;-70
2022/08/30 07:10:55;;;;;;;2.83;1.00;;;38.70;94.30;;;;;;5054550;28;20114;-70
2022/08/30 07:13:22;;;;;;;3.30;0.95;;;38.90;93.90;;;;;;5054379;28;20529;-71
2022/08/30 07:15:49;;;;;;;7.43;1.10;;;39.80;93.30;;;;;;5053935;28;20028;-70
2022/08/30 07:21:14;;;;;;;3.88;1.00;;;40.70;91.60;;;;;;5054003;28;20079;-70
2022/08/30 07:23:41;;;;;;;3.65;1.13;;;40.70;91.90;;;;;;5053751;28;20033;-70
2022/08/30 07:26:09;;;;;;;4.55;1.40;;;39.50;92.10;;;;;;5053636;28;20110;-70
2022/08/30 07:28:40;;;;;;;4.13;1.30;;;39.40;92.70;;;;;;5054204;28;20028;-71
2022/08/30 07:31:07;;;;;;;4.43;1.30;;;38.30;92.70;;;;;;5054064;28;20033;-71
2022/08/30 07:33:34;;;;;;;3.58;1.27;;;37.40;93.40;;;;;;5053012;28;20071;-70
2022/08/30 07:36:00;;;;;;;5.80;1.33;;;35.90;94.70;;;;;;5053987;28;20026;-70
2022/08/30 07:38:27;;;;;;;2.20;1.30;;;34.80;95.70;;;;;;5053452;28;20322;-70
2022/08/30 07:40:53;;;;;;;6.20;1.40;;;34.00;96.50;;;;;;5053328;28;20443;-70
2022/08/30 07:43:19;;;;;;;4.25;1.60;;;33.70;97.00;;;;;;5053496;28;20029;-71
2022/08/30 07:45:46;;;;;;;4.95;1.58;;;33.00;97.40;;;;;;5053350;28;20057;-71
2022/08/30 07:48:12;;;;;;;3.60;1.40;;;32.80;97.40;;;;;;5053219;28;20032;-71
2022/08/30 07:50:41;;;;;;;;;;;32.60;97.70;;;;;;5053397;28;20039;-70
2022/08/30 07:53:07;;;;;;;5.65;1.70;;;32.50;97.70;;;;;;5052627;28;19965;-71
2022/08/30 07:55:33;;;;;;;6.55;1.50;;;32.70;97.90;;;;;;5052997;28;20112;-71
2022/08/30 07:57:59;;;;;;;4.90;1.58;;;32.70;97.70;;;;;;5053069;28;20108;-71
2022/08/30 08:00:25;;;;;;;;;;;32.70;97.60;;;;;;5052575;28;20055;-71
2022/08/30 08:02:51;;;;;;;4.97;1.50;;;32.50;97.40;;;;;;5052222;28;20364;-71
2022/08/30 08:05:17;;;;;;;5.90;1.45;;;32.40;97.80;;;;;;5052830;28;20099;-71
2022/08/30 08:07:43;;;;;;;;;;;32.50;97.80;;;;;;5052884;28;20500;-71
2022/08/30 08:10:09;;;;;;;3.03;1.20;;;32.20;97.80;;;;;;5052377;28;19909;-70
2022/08/30 08:12:36;;;;;;;7.45;1.60;;;32.50;97.40;;;;;;5051478;28;20029;-70
2022/08/30 08:15:02;;;;;;;3.45;1.30;;;32.80;97.20;;;;;;5052701;28;20021;-70
2022/08/30 08:17:28;;;;;;;3.97;1.20;;;32.90;96.10;;;;;;5051724;28;20052;-70
2022/08/30 08:19:54;;;;;;;4.90;1.48;;;32.50;96.00;;;;;;5052932;28;20091;-70
2022/08/30 08:22:20;;;;;;;4.53;1.30;;;32.50;96.30;;;;;;5052875;28;20029;-71
2022/08/30 08:24:47;;;;;;;3.15;1.42;;;32.30;96.10;;;;;;5052861;28;20024;-70
2022/08/30 08:27:13;;;;;;;5.43;1.30;;;32.40;95.60;;;;;;5052551;28;20094;-70
2022/08/30 08:29:39;;;;;;;3.95;1.30;;;32.80;95.20;;;;;;5052907;28;20029;-71
2022/08/30 08:32:05;;;;;;;;;;;32.80;94.70;;;;;;5053089;28;20100;-70
2022/08/30 08:34:31;;;;;;;2.67;1.20;;;32.90;95.00;;;;;;5052605;28;19958;-70
2022/08/30 08:36:57;;;;;;;;;;;33.20;95.00;;;;;;5052714;28;20104;-70
2022/08/30 08:39:23;;;;;;;6.10;1.63;;;32.70;95.10;;;;;;5052448;28;20341;-70
2022/08/30 08:42:01;;;;;;;3.15;1.30;;;32.70;95.20;;;;;;5052523;28;20063;-70
2022/08/30 08:44:58;;;;;;;2.72;1.40;;;32.90;95.10;;;;;;5051879;28;20025;-70
2022/08/30 08:47:29;;;;;;;4.53;1.25;;;33.20;95.20;;;;;;5052270;28;20025;-70
2022/08/30 08:49:58;;;;;;;4.18;1.30;;;33.20;94.60;;;;;;5052239;28;20465;-70
2022/08/30 08:55:36;;;;;;;4.35;1.63;;;32.70;95.20;;;;;;5050885;28;20044;-70
2022/08/30 08:58:03;;;;;;;7.00;2.00;;;33.00;94.90;;;;;;5052340;28;20025;-70
2022/08/30 09:00:30;;;;;;;;;;;33.20;94.60;;;;;;5052197;28;20111;-70
2022/08/30 09:03:03;;;;;;;7.00;1.80;;;33.40;93.60;;;;;;5052146;28;19904;-70
2022/08/30 09:05:36;;;;;;;3.40;1.30;;;33.70;94.10;;;;;;5050558;28;20436;-70
2022/08/30 09:08:06;;;;;;;5.07;1.30;;;33.80;95.00;;;;;;5052055;28;20029;-70
2022/08/30 09:10:33;;;;;;;7.70;1.30;;;33.60;95.30;;;;;;5052034;28;20109;-70
2022/08/30 09:13:00;;;;;;;4.03;1.10;;;33.60;95.60;;;;;;5051664;28;20108;-70
2022/08/30 09:15:29;;;;;;;6.97;1.60;;;33.40;96.20;;;;;;5051441;28;20099;-70
2022/08/30 09:17:58;;;;;;;3.97;1.10;;;33.30;96.50;;;;;;5051547;28;20532;-70
2022/08/30 09:20:33;;;;;;;4.18;1.35;;;33.40;96.60;;;;;;5052010;28;20025;-70
2022/08/30 09:23:19;;;;;;;3.05;1.30;;;33.60;96.70;;;;;;5050427;28;20025;-70
2022/08/30 09:25:56;;;;;;;4.15;1.45;;;33.70;97.20;;;;;;5052106;28;20023;-70
2022/08/30 09:28:29;;;;;;;3.35;1.15;;;33.70;97.10;;;;;;5051505;28;20065;-70
2022/08/30 09:31:15;;;;;;;6.50;1.35;;;33.70;97.50;;;;;;5051638;28;20044;-70
2022/08/30 09:34:04;;;;;;;7.85;1.40;;;33.30;97.50;;;;;;5052008;28;20083;-71
2022/08/30 09:36:54;;;;;;;7.95;1.52;;;33.10;97.90;;;;;;5051372;28;20051;-70
2022/08/30 09:39:40;;;;;;;3.25;1.30;;;33.00;98.30;;;;;;5048558;28;20485;-71
2022/08/30 09:42:19;;;;;;;5.35;1.35;;;33.00;98.20;;;;;;5051396;28;20033;-70
2022/08/30 09:44:45;;;;;;;4.53;1.60;;;33.00;98.10;;;;;;5050336;28;20386;-70
2022/08/30 09:47:27;;;;;;;4.85;1.20;;;33.30;97.90;;;;;;5050116;28;20028;-70
2022/08/30 09:50:14;;;;;;;3.88;1.27;;;33.40;97.40;;;;;;5051798;28;20041;-70
2022/08/30 09:52:52;;;;;;;3.55;1.23;;;33.50;97.30;;;;;;5051323;28;20075;-70
2022/08/30 09:55:24;;;;;;;3.38;1.10;;;33.60;97.60;;;;;;5052524;28;20052;-70
2022/08/30 09:58:06;;;;;;;4.35;1.40;;;33.60;96.90;;;;;;5055018;28;20063;-70
2022/08/30 10:00:45;;;;;;;8.63;1.40;;;33.50;96.20;;;;;;5055404;28;20029;-70
2022/08/30 10:03:18;;;;;;;4.18;1.20;;;33.50;95.50;;;;;;5055392;28;20040;-70
2022/08/30 10:06:07;;;;;;;4.85;1.02;;;33.50;93.70;;;;;;5054032;28;20362;-70
2022/08/30 10:08:52;;;;;;;5.28;1.25;;;33.30;93.40;;;;;;5055961;28;20025;-70
2022/08/30 10:11:24;;;;;;;6.50;1.20;;;33.00;93.30;;;;;;5054580;28;20037;-70
2022/08/30 10:14:00;;;;;;;5.43;1.20;;;33.00;93.10;;;;;;5054771;28;20365;-70
2022/08/30 10:16:50;;;;;;;3.50;1.02;;;32.90;93.70;;;;;;5054557;28;20071;-72
2022/08/30 10:19:44;;;;;;;3.33;1.00;;;33.00;93.40;;;;;;5054975;28;20365;-70
2022/08/30 10:22:37;;;;;;;3.78;1.00;;;33.00;93.50;;;;;;5055366;28;20025;-70
2022/08/30 10:25:18;;;;;;;5.50;1.30;;;33.00;93.60;;;;;;5044619;28;20091;-70
2022/08/30 10:28:13;;;;;;;4.22;1.08;;;32.90;94.40;;;;;;5054567;28;20480;-70
2022/08/30 10:30:46;;;;;;;6.68;1.10;;;32.90;93.80;;;;;;5054055;28;20493;-70
2022/08/30 10:33:36;;;;;;;4.55;1.27;;;32.80;94.20;;;;;;5054765;28;20036;-70
2022/08/30 10:36:08;;;;;;;3.63;1.08;;;32.90;93.90;;;;;;5054969;28;20541;-70
2022/08/30 10:38:37;;;;;;;4.22;1.13;;;32.70;93.50;;;;;;5054858;28;20366;-70
2022/08/30 10:41:30;;;;;;;2.85;0.90;;;32.60;93.20;;;;;;5052995;28;20017;-70
2022/08/30 10:43:59;;;;;;;1.75;0.82;;;32.70;92.70;;;;;;5054736;28;20158;-70
2022/08/30 10:46:47;;;;;;;4.80;0.90;;;32.70;92.20;;;;;;5054338;28;20032;-70
2022/08/30 10:49:22;;;;;;;4.63;1.30;;;32.60;92.10;;;;;;5053883;28;20083;-70
2022/08/30 10:51:54;;;;;;;3.22;1.35;;;32.70;92.20;;;;;;5053836;28;20044;-70
2022/08/30 10:54:39;;;;;;;5.07;0.90;;;32.60;92.30;;;;;;5054694;28;20029;-70
2022/08/30 10:57:05;;;;;;;3.40;1.08;;;32.50;92.00;;;;;;5054473;28;20103;-70
2022/08/30 10:59:32;;;;;;;;;;;32.50;92.00;;;;;;5055338;28;20017;-70
2022/08/30 11:02:38;;;;;;;3.53;1.02;;;32.40;91.50;;;;;;5054389;28;19955;-70
2022/08/30 11:05:30;;;;;;;1.85;0.95;;;32.40;91.70;;;;;;5054904;28;20104;-70
2022/08/30 11:08:14;;;;;;;3.38;1.02;;;32.50;91.50;;;;;;5053458;28;20037;-70
2022/08/30 11:10:40;;;;;;;4.13;0.98;;;32.80;91.20;;;;;;5054659;28;20125;-70
2022/08/30 11:13:21;;;;;;;2.40;1.10;;;32.90;92.10;;;;;;5054714;28;20433;-70
2022/08/30 11:16:14;;;;;;;4.70;1.65;;;33.00;92.00;;;;;;5054708;28;20116;-70
2022/08/30 11:18:52;;;;;;;7.68;1.30;;;32.90;93.50;;;;;;5054512;28;20481;-70
2022/08/30 11:21:23;;;;;;;5.30;1.02;;;33.00;93.80;;;;;;5054709;28;20021;-70
2022/08/30 11:24:08;;;;;;;4.95;1.40;;;32.80;94.30;;;;;;5054913;28;20036;-70
2022/08/30 11:26:48;;;;;;;5.80;1.17;;;32.70;95.00;;;;;;5052882;28;20048;-70
2022/08/30 11:29:38;;;;;;;2.97;1.02;;;32.90;95.80;;;;;;5054607;28;20079;-70
2022/08/30 11:32:17;;;;;;;4.50;1.05;;;33.00;95.50;;;;;;5054445;28;20029;-70
2022/08/30 11:34:46;;;;;;;2.80;1.00;;;33.20;95.10;;;;;;5054357;28;20025;-70
2022/08/30 11:37:30;;;;;;;2.72;1.10;;;33.10;95.40;;;;;;5053834;28;20025;-70
2022/08/30 11:40:03;;;;;;;2.92;1.00;;;33.00;95.30;;;;;;5053799;28;20083;-70
2022/08/30 11:42:46;;;;;;;3.00;1.10;;;32.90;95.10;;;;;;5054561;28;20025;-70
2022/08/30 11:45:21;;;;;;;4.82;1.42;;;32.80;95.10;;;;;;5054005;28;20028;-70
2022/08/30 11:47:52;;;;;;;3.78;1.15;;;32.90;95.60;;;;;;5054290;28;20021;-70
2022/08/30 11:50:28;;;;;;;2.72;0.95;;;32.90;95.60;;;;;;5054184;28;20029;-70
2022/08/30 11:53:25;;;;;;;2.47;1.05;;;32.80;95.90;;;;;;5053867;28;20025;-70
2022/08/30 11:55:57;;;;;;;3.47;1.00;;;32.80;96.00;;;;;;5053426;28;20068;-70
2022/08/30 11:58:32;;;;;;;3.22;1.10;;;32.60;96.10;;;;;;5053600;28;20075;-71
2022/08/30 12:01:15;;;;;;;12.13;1.47;;;32.60;96.10;;;;;;5053742;28;20048;-70
2022/08/30 12:03:42;;;;;;;5.38;1.10;;;32.60;96.00;;;;;;5053455;28;20040;-71
2022/08/30 12:06:11;;;;;;;8.32;1.35;;;32.80;95.50;;;;;;5053458;28;20068;-72
2022/08/30 12:08:43;;;;;;;4.22;0.95;;;32.70;95.80;;;;;;5052951;28;20078;-73
2022/08/30 12:11:12;;;;;;;2.30;1.02;;;32.60;96.10;;;;;;5052864;28;20033;-70
2022/08/30 12:13:44;;;;;;;7.13;1.00;;;32.70;96.30;;;;;;5053450;28;20087;-70
2022/08/30 12:18:26;;;;;;;3.28;1.10;;;32.80;96.10;;;;;;5052844;28;20025;-70
2022/08/30 12:19:29;;;;;;;2.47;1.08;;;32.80;95.90;;;;;;5053005;28;20382;-71
2022/08/30 12:21:58;;;;;;;3.47;1.00;;;32.50;95.90;;;;;;5053612;28;20468;-72
2022/08/30 12:24:36;;;;;;;5.18;0.85;;;32.60;95.50;;;;;;5052980;28;20481;-70
2022/08/30 12:27:31;;;;;;;2.60;1.20;;;32.50;95.40;;;;;;5053161;28;20182;-70
2022/08/30 12:30:00;;;;;;;;;;;32.50;95.40;;;;;;5053380;28;20025;-70
2022/08/30 12:32:27;;;;;;;4.07;1.10;;;32.30;94.90;;;;;;5053532;28;19914;-70
2022/08/30 12:35:03;;;;;;;4.90;1.00;;;32.50;94.90;;;;;;5052902;28;20576;-70
2022/08/30 12:37:35;;;;;;;4.55;1.10;;;32.50;94.50;;;;;;5051628;28;20025;-70
2022/08/30 12:40:19;;;;;;;3.78;1.00;;;32.40;94.60;;;;;;5052813;28;20029;-71
2022/08/30 12:42:53;;;;;;;3.88;0.93;;;32.10;94.80;;;;;;5053307;28;20021;-70
2022/08/30 12:45:23;;;;;;;3.13;1.00;;;32.40;94.30;;;;;;5053277;28;20098;-71
2022/08/30 12:47:54;;;;;;;3.35;1.00;;;32.50;94.40;;;;;;5053051;28;20021;-70
2022/08/30 12:50:25;;;;;;;3.38;1.27;;;32.60;94.60;;;;;;5053073;28;20025;-70
2022/08/30 12:53:03;;;;;;;3.45;1.13;;;32.70;94.40;;;;;;5052431;28;20123;-71
2022/08/30 12:55:33;;;;;;;4.10;0.90;;;32.60;94.50;;;;;;5052526;28;20021;-71
2022/08/30 12:58:08;;;;;;;5.28;1.00;;;32.60;94.70;;;;;;5051919;28;20362;-70
2022/08/30 13:00:38;;;;;;;3.55;0.90;;;32.80;94.40;;;;;;5052014;28;20523;-70
2022/08/30 13:03:33;;;;;;;2.00;1.00;;;32.90;94.30;;;;;;5051959;28;20161;-70
2022/08/30 13:06:00;;;;;;;3.28;0.80;;;33.00;94.70;;;;;;5052398;28;20108;-71
2022/08/30 13:08:44;;;;;;;4.47;1.10;;;32.90;94.30;;;;;;5051842;28;20033;-70
2022/08/30 13:11:19;;;;;;;5.30;1.05;;;32.90;94.40;;;;;;5052144;28;20036;-70
2022/08/30 13:13:50;;;;;;;3.42;1.00;;;32.90;94.70;;;;;;5052384;28;20029;-70
2022/08/30 13:16:26;;;;;;;5.45;1.10;;;32.70;94.70;;;;;;5051881;28;20033;-70
2022/08/30 13:19:17;;;;;;;4.68;0.85;;;32.70;94.70;;;;;;5052638;28;20124;-70